Time;durP1;ratioP1;P1;durP2;ratioP2;P2;SDS_P1;SDS_P2;PMS_P1;PMS_P2;Temp;Humidity;BMP_temperature;BMP_pressure;BME280_temperature;BME280_humidity;BME280_pressure;Samples;Min_cycle;Max_cycle;Signal;HPM_P1;HPM_P2
2024/01/26 00:00:04;;;;;;;13.55;1.75;;;5.40;99.90;;;;;;4974169;28;20046;-68
2024/01/26 00:02:30;;;;;;;10.40;1.83;;;5.40;99.90;;;;;;4974002;28;20038;-68
2024/01/26 00:04:56;;;;;;;14.05;2.00;;;5.50;99.90;;;;;;4975422;28;20027;-68
2024/01/26 00:07:21;;;;;;;11.48;2.13;;;5.50;99.90;;;;;;4974944;28;20034;-68
2024/01/26 00:09:47;;;;;;;14.68;2.22;;;5.50;99.90;;;;;;4974661;28;20065;-68
2024/01/26 00:12:13;;;;;;;10.20;2.03;;;5.50;99.90;;;;;;4974866;28;20043;-68
2024/01/26 00:14:38;;;;;;;12.75;3.65;;;5.50;99.90;;;;;;4958403;28;20030;-68
2024/01/26 00:17:04;;;;;;;10.43;2.22;;;5.50;99.90;;;;;;4959727;28;20126;-68
2024/01/26 00:19:29;;;;;;;11.82;1.92;;;5.40;99.90;;;;;;4975287;28;20038;-68
2024/01/26 00:21:56;;;;;;;17.50;2.60;;;5.50;99.90;;;;;;4959115;28;20035;-69
2024/01/26 00:24:22;;;;;;;10.98;2.00;;;5.50;99.90;;;;;;4975086;28;20035;-68
2024/01/26 00:26:47;;;;;;;9.32;2.35;;;5.60;99.90;;;;;;4973427;28;20101;-68
2024/01/26 00:29:13;;;;;;;18.27;3.10;;;5.60;99.90;;;;;;4975211;28;20035;-68
2024/01/26 00:31:39;;;;;;;11.93;2.40;;;5.60;99.90;;;;;;4974729;28;20395;-68
2024/01/26 00:34:04;;;;;;;11.40;2.00;;;5.60;99.90;;;;;;4957589;28;20027;-68
2024/01/26 00:36:30;;;;;;;12.15;2.42;;;5.60;99.90;;;;;;4974716;28;20047;-68
2024/01/26 00:38:55;;;;;;;9.90;1.65;;;5.70;99.90;;;;;;4974861;28;20027;-68
2024/01/26 00:41:21;;;;;;;10.93;1.83;;;5.70;99.90;;;;;;4973973;28;20033;-68
2024/01/26 00:43:47;;;;;;;10.10;1.95;;;5.70;99.90;;;;;;4974823;28;20038;-68
2024/01/26 00:46:12;;;;;;;14.77;2.35;;;5.80;99.90;;;;;;4974782;28;20363;-69
2024/01/26 00:48:38;;;;;;;16.45;2.30;;;5.70;99.90;;;;;;4974975;28;20031;-68
2024/01/26 00:51:04;;;;;;;12.27;2.35;;;5.70;99.90;;;;;;4974788;28;20109;-68
2024/01/26 00:53:30;;;;;;;7.22;1.90;;;5.80;99.90;;;;;;4974946;28;20058;-68
2024/01/26 00:55:55;;;;;;;12.13;1.90;;;5.80;99.90;;;;;;4974739;28;20493;-68
2024/01/26 00:58:21;;;;;;;14.93;2.83;;;5.80;99.90;;;;;;4974690;28;20095;-68
2024/01/26 01:00:47;;;;;;;11.32;2.22;;;5.80;99.90;;;;;;4957589;28;20030;-68
2024/01/26 01:03:13;;;;;;;9.60;2.20;;;5.80;99.90;;;;;;4974674;28;20034;-68
2024/01/26 01:05:39;;;;;;;10.95;1.90;;;5.80;99.90;;;;;;4973432;28;20023;-68
2024/01/26 01:08:05;;;;;;;13.50;3.38;;;5.80;99.90;;;;;;4973656;28;20027;-68
2024/01/26 01:10:30;;;;;;;9.88;1.85;;;5.70;99.90;;;;;;4973674;28;20031;-68
2024/01/26 01:12:57;;;;;;;17.83;2.63;;;5.80;99.90;;;;;;4973376;28;20034;-68
2024/01/26 01:15:23;;;;;;;8.90;1.80;;;5.80;99.90;;;;;;4973286;28;20562;-68
2024/01/26 01:17:49;;;;;;;14.55;2.72;;;5.70;99.90;;;;;;4974537;28;20113;-68
2024/01/26 01:20:15;;;;;;;18.85;2.95;;;5.70;99.90;;;;;;4974198;28;20467;-68
2024/01/26 01:22:42;;;;;;;13.13;1.95;;;5.70;99.90;;;;;;4960835;28;20035;-68
2024/01/26 01:25:11;;;;;;;10.82;2.35;;;5.70;99.90;;;;;;4976774;28;20023;-68
2024/01/26 01:27:36;;;;;;;;;;;5.70;99.90;;;;;;4977938;28;20051;-68
2024/01/26 01:30:04;;;;;;;14.05;2.25;;;5.70;99.90;;;;;;4976794;28;20271;-68
2024/01/26 01:32:30;;;;;;;9.27;2.72;;;5.70;99.90;;;;;;4977810;28;20386;-68
2024/01/26 01:34:56;;;;;;;14.85;3.65;;;5.70;99.90;;;;;;4976986;28;20034;-68
2024/01/26 01:37:21;;;;;;;15.02;2.10;;;5.70;99.90;;;;;;4978436;28;20026;-74
2024/01/26 01:39:48;;;;;;;11.85;2.45;;;5.70;99.90;;;;;;4979161;28;20462;-69
2024/01/26 01:42:14;;;;;;;8.43;2.22;;;5.70;99.90;;;;;;4979363;28;20069;-69
2024/01/26 01:44:43;;;;;;;19.13;3.25;;;5.70;99.90;;;;;;4978476;28;20062;-68
2024/01/26 01:47:10;;;;;;;13.73;2.45;;;5.70;99.90;;;;;;4976955;28;20038;-69
2024/01/26 01:49:36;;;;;;;9.45;2.15;;;5.70;99.90;;;;;;4976650;28;20125;-68
2024/01/26 01:52:05;;;;;;;11.15;1.60;;;5.70;99.90;;;;;;4977364;28;20053;-70
2024/01/26 01:54:31;;;;;;;13.17;2.03;;;5.60;99.90;;;;;;4977538;28;20041;-68
2024/01/26 01:56:57;;;;;;;15.27;2.33;;;5.70;99.90;;;;;;4977477;28;20313;-68
2024/01/26 01:59:23;;;;;;;11.68;2.67;;;5.60;99.90;;;;;;4977476;28;20035;-68
2024/01/26 02:01:49;;;;;;;12.93;2.20;;;5.60;99.90;;;;;;4976137;28;20478;-68
2024/01/26 02:04:15;;;;;;;17.52;3.17;;;5.60;99.90;;;;;;4976068;28;20426;-68
2024/01/26 02:06:41;;;;;;;8.55;2.20;;;5.60;99.90;;;;;;4976042;28;20037;-68
2024/01/26 02:09:06;;;;;;;17.17;2.35;;;5.60;99.90;;;;;;4976948;28;20027;-69
2024/01/26 02:11:32;;;;;;;11.93;1.50;;;5.50;99.90;;;;;;4975940;28;20035;-68
2024/01/26 02:13:59;;;;;;;16.38;2.17;;;5.60;99.90;;;;;;4977111;28;20031;-69
2024/01/26 02:16:25;;;;;;;15.00;2.17;;;5.50;99.90;;;;;;4977081;28;20033;-69
2024/01/26 02:18:50;;;;;;;14.82;2.25;;;5.50;99.90;;;;;;4977036;28;20034;-68
2024/01/26 02:21:16;;;;;;;11.70;2.97;;;5.50;99.90;;;;;;4976712;28;20058;-68
2024/01/26 02:23:43;;;;;;;12.15;2.38;;;5.50;99.90;;;;;;4975622;28;20050;-68
2024/01/26 02:26:09;;;;;;;13.50;2.22;;;5.50;99.90;;;;;;4972115;28;20057;-68
2024/01/26 02:28:35;;;;;;;11.65;1.98;;;5.50;99.90;;;;;;4957492;29;20023;-68
2024/01/26 02:31:01;;;;;;;12.48;1.92;;;5.60;99.90;;;;;;4956456;29;20039;-68
2024/01/26 02:33:26;;;;;;;14.68;2.72;;;5.60;99.90;;;;;;4956648;28;20019;-68
2024/01/26 02:35:52;;;;;;;14.13;2.15;;;5.60;99.90;;;;;;4957702;29;20066;-68
2024/01/26 02:38:19;;;;;;;9.60;1.55;;;5.60;99.90;;;;;;4957144;29;20107;-68
2024/01/26 02:40:45;;;;;;;10.15;2.63;;;5.50;99.90;;;;;;4957326;29;20069;-68
2024/01/26 02:43:11;;;;;;;16.00;2.28;;;5.60;99.90;;;;;;4957396;29;20037;-69
2024/01/26 02:45:36;;;;;;;9.93;2.05;;;5.60;99.90;;;;;;4957289;29;20371;-69
2024/01/26 02:48:02;;;;;;;8.77;2.38;;;5.60;99.90;;;;;;4957331;29;20118;-68
2024/01/26 02:50:28;;;;;;;12.02;2.10;;;5.60;99.90;;;;;;4957207;29;20431;-68
2024/01/26 02:52:54;;;;;;;10.23;2.05;;;5.60;99.90;;;;;;4957113;29;20082;-68
2024/01/26 02:55:19;;;;;;;17.27;2.83;;;5.60;99.90;;;;;;4955846;29;20364;-68
2024/01/26 02:57:45;;;;;;;8.73;1.67;;;5.70;99.90;;;;;;4957018;29;20058;-68
2024/01/26 03:00:11;;;;;;;12.00;1.90;;;5.70;99.90;;;;;;4956644;29;20094;-69
2024/01/26 03:02:37;;;;;;;13.45;2.45;;;5.60;99.90;;;;;;4956926;29;20039;-69
2024/01/26 03:05:03;;;;;;;13.70;2.22;;;5.60;99.90;;;;;;4956943;29;20452;-69
2024/01/26 03:07:29;;;;;;;12.48;1.83;;;5.60;99.90;;;;;;4955801;29;20031;-69
2024/01/26 03:09:55;;;;;;;8.82;3.00;;;5.60;99.90;;;;;;4956592;29;20375;-69
2024/01/26 03:12:20;;;;;;;19.40;2.83;;;5.60;99.90;;;;;;4957975;29;20074;-68
2024/01/26 03:14:46;;;;;;;14.48;2.78;;;5.60;99.90;;;;;;4959673;29;20103;-70
2024/01/26 03:17:11;;;;;;;15.15;2.40;;;5.60;99.90;;;;;;4960261;29;20495;-69
2024/01/26 03:19:37;;;;;;;17.67;2.05;;;5.60;99.90;;;;;;4957951;29;20124;-68
2024/01/26 03:22:03;;;;;;;12.10;1.70;;;5.60;99.90;;;;;;4971299;28;20467;-69
2024/01/26 03:24:29;;;;;;;14.98;2.35;;;5.60;99.90;;;;;;4955321;29;20034;-68
2024/01/26 03:26:54;;;;;;;16.35;2.92;;;5.60;99.90;;;;;;4955038;29;20079;-69
2024/01/26 03:29:20;;;;;;;12.93;2.90;;;5.60;99.90;;;;;;4956479;29;20027;-69
2024/01/26 03:31:46;;;;;;;21.42;2.45;;;5.60;99.90;;;;;;4971174;28;20035;-69
2024/01/26 03:34:12;;;;;;;15.88;2.60;;;5.50;99.90;;;;;;4955149;29;20455;-69
2024/01/26 03:36:37;;;;;;;8.57;1.70;;;5.50;99.90;;;;;;4955294;29;20031;-68
2024/01/26 03:39:03;;;;;;;10.13;2.42;;;5.40;99.90;;;;;;4971225;28;20405;-68
2024/01/26 03:41:29;;;;;;;13.35;2.20;;;5.40;99.90;;;;;;4956237;29;20035;-68
2024/01/26 03:43:55;;;;;;;13.00;2.67;;;5.40;99.90;;;;;;4970675;28;20490;-68
2024/01/26 03:46:21;;;;;;;10.70;1.83;;;5.30;99.90;;;;;;4955942;29;20110;-69
2024/01/26 03:48:47;;;;;;;9.15;2.63;;;5.30;99.90;;;;;;4956175;29;20077;-69
2024/01/26 03:51:13;;;;;;;12.70;2.03;;;5.30;99.90;;;;;;4956431;28;20038;-69
2024/01/26 03:53:39;;;;;;;15.57;2.60;;;5.20;99.90;;;;;;4955824;29;20459;-68
2024/01/26 03:56:05;;;;;;;16.95;2.17;;;5.10;99.90;;;;;;4955791;29;20038;-69
2024/01/26 03:58:30;;;;;;;12.88;2.47;;;5.10;99.90;;;;;;4956626;29;20038;-68
2024/01/26 04:00:56;;;;;;;14.45;2.50;;;5.00;99.90;;;;;;4954861;29;20537;-68
2024/01/26 04:03:22;;;;;;;11.85;2.22;;;5.00;99.90;;;;;;4956580;29;20443;-69
2024/01/26 04:05:47;;;;;;;11.43;2.90;;;4.90;99.90;;;;;;4955931;29;20027;-69
2024/01/26 04:08:13;;;;;;;20.88;3.45;;;4.90;99.90;;;;;;4955939;29;20031;-69
2024/01/26 04:10:39;;;;;;;14.95;3.25;;;4.90;99.90;;;;;;4955903;29;20034;-69
2024/01/26 04:13:05;;;;;;;17.15;2.78;;;4.90;99.90;;;;;;4955887;29;20031;-69
2024/01/26 04:15:31;;;;;;;7.30;2.17;;;4.90;99.90;;;;;;4954563;29;20028;-69
2024/01/26 04:17:57;;;;;;;12.85;2.67;;;4.80;99.90;;;;;;4970608;28;20031;-69
2024/01/26 04:20:23;;;;;;;9.45;2.35;;;4.80;99.90;;;;;;4955882;29;20031;-69
2024/01/26 04:22:49;;;;;;;12.63;2.72;;;4.80;99.90;;;;;;4955481;29;20064;-69
2024/01/26 04:25:14;;;;;;;13.95;2.67;;;4.80;99.90;;;;;;4956022;28;20463;-69
2024/01/26 04:27:40;;;;;;;13.30;3.35;;;4.90;99.90;;;;;;4975683;28;20037;-70
2024/01/26 04:30:06;;;;;;;15.57;2.15;;;5.00;99.90;;;;;;4976888;28;20031;-69
2024/01/26 04:32:32;;;;;;;21.38;2.50;;;5.10;99.90;;;;;;4976391;28;20034;-70
2024/01/26 04:34:58;;;;;;;15.13;2.88;;;5.20;99.90;;;;;;4976258;28;20027;-69
2024/01/26 04:37:23;;;;;;;20.92;2.45;;;5.30;99.90;;;;;;4974124;28;20035;-69
2024/01/26 04:39:50;;;;;;;8.30;2.40;;;5.30;99.90;;;;;;4973655;28;20030;-69
2024/01/26 04:42:16;;;;;;;19.00;3.13;;;5.40;99.90;;;;;;4974776;28;20118;-69
2024/01/26 04:44:42;;;;;;;16.85;2.58;;;5.40;99.90;;;;;;4957198;28;20166;-69
2024/01/26 04:47:07;;;;;;;11.38;2.25;;;5.50;99.90;;;;;;4975031;28;20030;-69
2024/01/26 04:49:33;;;;;;;13.25;2.20;;;5.50;99.90;;;;;;4974793;28;20035;-69
2024/01/26 04:52:01;;;;;;;15.02;2.33;;;5.50;99.90;;;;;;4974737;28;20064;-69
2024/01/26 04:54:27;;;;;;;15.10;3.30;;;5.50;99.90;;;;;;4973463;28;20030;-69
2024/01/26 04:56:52;;;;;;;12.18;1.88;;;5.50;99.90;;;;;;4976898;28;20105;-69
2024/01/26 04:59:18;;;;;;;10.07;1.85;;;5.50;99.90;;;;;;4978641;28;20518;-69
2024/01/26 05:01:44;;;;;;;10.80;1.85;;;5.50;99.90;;;;;;4978359;28;20086;-69
2024/01/26 05:04:09;;;;;;;11.95;2.38;;;5.50;99.90;;;;;;4978469;28;20501;-69
2024/01/26 05:06:35;;;;;;;18.05;3.47;;;5.60;99.90;;;;;;4978101;28;20562;-68
2024/01/26 05:09:01;;;;;;;14.40;2.28;;;5.60;99.90;;;;;;4978117;28;20098;-68
2024/01/26 05:11:26;;;;;;;7.72;1.73;;;5.60;99.90;;;;;;4978387;28;20062;-69
2024/01/26 05:13:52;;;;;;;13.52;2.25;;;5.60;99.90;;;;;;4978255;28;20454;-69
2024/01/26 05:16:18;;;;;;;14.13;2.25;;;5.60;99.90;;;;;;4976962;28;20422;-68
2024/01/26 05:18:43;;;;;;;20.60;3.13;;;5.60;99.90;;;;;;4976966;28;20119;-69
2024/01/26 05:21:09;;;;;;;13.90;2.33;;;5.50;99.90;;;;;;4978107;28;20115;-68
2024/01/26 05:23:35;;;;;;;14.07;2.58;;;5.50;99.90;;;;;;4978049;28;20074;-67
2024/01/26 05:26:01;;;;;;;19.33;2.05;;;5.40;99.90;;;;;;4976442;28;20093;-67
2024/01/26 05:28:26;;;;;;;13.48;2.58;;;5.40;99.90;;;;;;4978056;28;20139;-68
2024/01/26 05:30:52;;;;;;;13.45;2.83;;;5.40;99.90;;;;;;4977731;28;20486;-69
2024/01/26 05:33:18;;;;;;;18.77;3.22;;;5.40;99.90;;;;;;4978180;28;20036;-68
2024/01/26 05:35:45;;;;;;;18.85;2.88;;;5.30;99.90;;;;;;4977845;28;20027;-68
2024/01/26 05:38:11;;;;;;;12.68;2.58;;;5.30;99.90;;;;;;4977863;28;20070;-68
2024/01/26 05:40:36;;;;;;;16.23;2.45;;;5.30;99.90;;;;;;4960299;28;20027;-68
2024/01/26 05:43:02;;;;;;;18.55;2.63;;;5.30;99.90;;;;;;4976393;28;20130;-68
2024/01/26 05:45:28;;;;;;;14.25;2.13;;;5.30;99.90;;;;;;4976993;28;20031;-69
2024/01/26 05:47:54;;;;;;;18.90;2.90;;;5.30;99.90;;;;;;4977805;28;20093;-69
2024/01/26 05:50:21;;;;;;;16.75;3.05;;;5.30;99.90;;;;;;4977580;28;20058;-69
2024/01/26 05:52:47;;;;;;;15.57;2.38;;;5.30;99.90;;;;;;4977528;28;20030;-68
2024/01/26 05:55:14;;;;;;;14.05;2.38;;;5.30;99.90;;;;;;4977436;28;20038;-69
2024/01/26 05:57:40;;;;;;;17.48;2.75;;;5.20;99.90;;;;;;4960081;28;20031;-69
2024/01/26 06:00:06;;;;;;;10.75;2.63;;;5.20;99.90;;;;;;4977449;28;20027;-69
2024/01/26 06:02:32;;;;;;;23.90;3.17;;;5.20;99.90;;;;;;4976680;28;20058;-69
2024/01/26 06:04:57;;;;;;;12.52;2.63;;;5.10;99.90;;;;;;4975988;28;20031;-69
2024/01/26 06:07:23;;;;;;;16.15;3.53;;;5.10;99.90;;;;;;4975134;28;20117;-69
2024/01/26 06:09:49;;;;;;;18.60;3.30;;;5.00;99.90;;;;;;4977382;28;20023;-69
2024/01/26 06:12:14;;;;;;;21.35;4.75;;;5.00;99.90;;;;;;4977837;28;20038;-69
2024/01/26 06:14:46;;;;;;;16.67;3.83;;;4.90;99.90;;;;;;4976682;28;20027;-69
2024/01/26 06:17:12;;;;;;;13.00;3.63;;;4.90;99.90;;;;;;4978124;28;20110;-69
2024/01/26 06:19:38;;;;;;;21.67;4.95;;;4.90;99.90;;;;;;4976896;28;20050;-69
2024/01/26 06:22:03;;;;;;;20.27;4.18;;;4.80;99.90;;;;;;4975694;28;20475;-69
2024/01/26 06:24:29;;;;;;;18.00;4.40;;;4.80;99.90;;;;;;4977235;28;20110;-68
2024/01/26 06:26:55;;;;;;;28.15;4.80;;;4.80;99.90;;;;;;4972189;28;20058;-69
2024/01/26 06:29:20;;;;;;;18.58;4.38;;;4.80;99.90;;;;;;4957578;29;20031;-69
2024/01/26 06:31:46;;;;;;;24.73;4.68;;;4.80;99.90;;;;;;4956470;29;20062;-69
2024/01/26 06:34:12;;;;;;;21.88;4.30;;;4.70;99.90;;;;;;4957440;29;20050;-69
2024/01/26 06:36:37;;;;;;;24.17;4.05;;;4.70;99.90;;;;;;4972247;28;20027;-69
2024/01/26 06:39:03;;;;;;;20.63;4.35;;;4.70;99.90;;;;;;4957363;29;20061;-69
2024/01/26 06:41:29;;;;;;;18.80;3.70;;;4.60;99.90;;;;;;4956028;29;20039;-69
2024/01/26 06:43:54;;;;;;;12.48;3.63;;;4.60;99.90;;;;;;4972199;28;20480;-69
2024/01/26 06:46:23;;;;;;;17.67;3.90;;;4.60;99.90;;;;;;4957289;29;20080;-69
2024/01/26 06:48:50;;;;;;;19.52;3.58;;;4.50;99.90;;;;;;4957216;29;20020;-69
2024/01/26 06:51:16;;;;;;;20.95;3.90;;;4.50;99.90;;;;;;4957148;29;20487;-69
2024/01/26 06:53:41;;;;;;;18.23;3.28;;;4.50;99.90;;;;;;4957508;29;20031;-69
2024/01/26 06:56:08;;;;;;;26.95;4.25;;;4.40;99.90;;;;;;4955806;29;20475;-69
2024/01/26 06:58:33;;;;;;;18.67;4.55;;;4.40;99.90;;;;;;4957031;29;20035;-69
2024/01/26 07:01:00;;;;;;;17.05;4.18;;;4.40;99.90;;;;;;4955665;29;20035;-69
2024/01/26 07:03:26;;;;;;;13.35;4.25;;;4.40;99.90;;;;;;4956615;29;20391;-69
2024/01/26 07:05:52;;;;;;;16.80;3.72;;;4.40;99.90;;;;;;4955643;29;20034;-69
2024/01/26 07:08:17;;;;;;;22.52;4.65;;;4.40;99.90;;;;;;4957080;29;20038;-69
2024/01/26 07:10:43;;;;;;;15.13;3.53;;;4.40;99.90;;;;;;4972215;28;20065;-69
2024/01/26 07:13:09;;;;;;;24.90;4.85;;;4.40;99.90;;;;;;4956490;29;20390;-69
2024/01/26 07:15:35;;;;;;;12.32;3.92;;;4.50;99.90;;;;;;4955461;29;20062;-69
2024/01/26 07:18:01;;;;;;;20.77;4.15;;;4.50;99.90;;;;;;4956672;29;20024;-69
2024/01/26 07:20:27;;;;;;;17.00;4.47;;;4.50;99.90;;;;;;4955179;28;20027;-69
2024/01/26 07:22:52;;;;;;;21.58;4.63;;;4.60;99.90;;;;;;4956745;29;20035;-69
2024/01/26 07:25:21;;;;;;;19.20;5.18;;;4.60;99.90;;;;;;4957059;28;20054;-69
2024/01/26 07:27:47;;;;;;;23.48;4.97;;;4.70;99.90;;;;;;4976640;28;20101;-69
2024/01/26 07:30:14;;;;;;;34.55;7.10;;;4.80;99.90;;;;;;4975717;28;20041;-69
2024/01/26 07:32:40;;;;;;;29.77;7.75;;;4.90;99.90;;;;;;4974393;28;20041;-69
2024/01/26 07:35:06;;;;;;;35.58;10.80;;;5.00;99.90;;;;;;4974703;28;20054;-69
2024/01/26 07:37:33;;;;;;;45.05;12.85;;;5.10;99.90;;;;;;4974439;28;20054;-69
2024/01/26 07:39:58;;;;;;;30.35;9.98;;;5.20;99.90;;;;;;4975537;28;20085;-69
2024/01/26 07:42:24;;;;;;;41.95;9.15;;;5.30;99.90;;;;;;4975505;28;20038;-69
2024/01/26 07:44:50;;;;;;;25.60;6.78;;;5.40;99.90;;;;;;4975525;28;20034;-69
2024/01/26 07:47:15;;;;;;;27.20;5.70;;;5.50;99.90;;;;;;4975950;28;20034;-69
2024/01/26 07:49:41;;;;;;;26.52;6.35;;;5.60;99.90;;;;;;4974289;28;20031;-69
2024/01/26 07:52:07;;;;;;;32.00;7.20;;;5.80;99.90;;;;;;4974580;28;20387;-69
2024/01/26 07:54:32;;;;;;;23.55;6.82;;;5.90;99.90;;;;;;4974641;28;20145;-69
2024/01/26 07:56:58;;;;;;;34.38;9.05;;;5.90;99.90;;;;;;4974643;28;20050;-69
2024/01/26 07:59:24;;;;;;;38.35;10.38;;;6.00;99.90;;;;;;4976341;28;20023;-69
2024/01/26 08:01:49;;;;;;;35.47;11.98;;;6.10;99.90;;;;;;4977965;28;20064;-69
2024/01/26 08:04:15;;;;;;;32.03;9.13;;;6.30;99.90;;;;;;4977718;28;20035;-69
2024/01/26 08:06:41;;;;;;;28.85;6.65;;;6.30;99.90;;;;;;4959925;28;20486;-69
2024/01/26 08:09:10;;;;;;;24.00;6.50;;;6.40;99.90;;;;;;4975744;28;20027;-69
2024/01/26 08:11:36;;;;;;;23.70;5.85;;;6.50;99.90;;;;;;4975795;28;20474;-69
2024/01/26 08:14:02;;;;;;;18.30;4.88;;;6.60;99.90;;;;;;4976500;28;20035;-69
2024/01/26 08:16:28;;;;;;;15.35;3.70;;;6.80;99.90;;;;;;4975860;28;20466;-69
2024/01/26 08:18:54;;;;;;;16.92;3.95;;;6.80;99.90;;;;;;4975263;28;20027;-69
2024/01/26 08:21:20;;;;;;;16.33;3.97;;;6.90;99.90;;;;;;4975989;28;20109;-69
2024/01/26 08:23:46;;;;;;;21.98;4.50;;;6.90;99.90;;;;;;4975813;28;20117;-69
2024/01/26 08:26:12;;;;;;;24.20;4.35;;;6.90;99.90;;;;;;4973830;28;20499;-69
2024/01/26 08:28:38;;;;;;;16.13;3.63;;;6.90;99.90;;;;;;4974917;28;20065;-69
2024/01/26 08:31:05;;;;;;;15.20;3.53;;;7.00;99.90;;;;;;4974940;28;20038;-68
2024/01/26 08:33:31;;;;;;;20.80;3.92;;;7.00;99.90;;;;;;4978714;28;20045;-69
2024/01/26 08:35:56;;;;;;;20.55;5.00;;;7.10;99.90;;;;;;4979320;28;20475;-68
2024/01/26 08:38:22;;;;;;;16.73;4.50;;;7.10;99.90;;;;;;4978927;28;20466;-69
2024/01/26 08:40:48;;;;;;;19.70;3.90;;;7.10;99.90;;;;;;4977557;28;20057;-68
2024/01/26 08:43:13;;;;;;;17.67;4.55;;;7.20;99.90;;;;;;4978742;28;20031;-69
2024/01/26 08:45:39;;;;;;;20.75;4.25;;;7.20;99.90;;;;;;4961576;28;20525;-69
2024/01/26 08:48:05;;;;;;;13.18;3.83;;;7.20;99.90;;;;;;4979129;28;20054;-69
2024/01/26 08:50:30;;;;;;;19.23;3.80;;;7.30;99.90;;;;;;4979228;28;20055;-70
2024/01/26 08:52:56;;;;;;;15.63;3.22;;;7.40;99.90;;;;;;4979538;28;20065;-69
2024/01/26 08:55:22;;;;;;;17.98;3.35;;;7.50;99.90;;;;;;4978097;28;20077;-69
2024/01/26 08:57:48;;;;;;;17.63;3.55;;;7.50;99.90;;;;;;4978233;28;20101;-69
2024/01/26 09:00:15;;;;;;;15.10;4.30;;;7.50;99.90;;;;;;4978081;28;20388;-69
2024/01/26 09:02:41;;;;;;;17.35;4.45;;;7.60;99.90;;;;;;4978793;28;20044;-69
2024/01/26 09:05:08;;;;;;;15.85;3.92;;;7.60;99.90;;;;;;4961406;28;20081;-69
2024/01/26 09:07:35;;;;;;;17.20;3.80;;;7.60;99.90;;;;;;4978585;28;20118;-69
2024/01/26 09:10:00;;;;;;;17.33;3.65;;;7.60;99.90;;;;;;4978315;28;20505;-69
2024/01/26 09:12:26;;;;;;;10.63;4.13;;;7.60;99.90;;;;;;4978893;28;20023;-69
2024/01/26 09:14:52;;;;;;;22.05;4.25;;;7.70;99.90;;;;;;4978741;28;20027;-69
2024/01/26 09:17:17;;;;;;;19.75;5.32;;;7.70;99.90;;;;;;4977473;28;20525;-69
2024/01/26 09:19:43;;;;;;;22.55;5.75;;;7.70;99.90;;;;;;4979132;28;20031;-69
2024/01/26 09:22:09;;;;;;;22.73;4.82;;;7.70;99.90;;;;;;4979111;28;20035;-69
2024/01/26 09:24:34;;;;;;;13.10;3.90;;;7.70;99.90;;;;;;4977796;28;20056;-69
2024/01/26 09:27:01;;;;;;;19.48;4.43;;;7.70;99.90;;;;;;4979623;28;20467;-69
2024/01/26 09:29:26;;;;;;;18.73;6.03;;;7.80;99.90;;;;;;4979564;28;20019;-69
2024/01/26 09:31:54;;;;;;;21.40;4.90;;;7.80;99.90;;;;;;4978769;28;20101;-69
2024/01/26 09:34:20;;;;;;;15.23;4.43;;;7.90;99.90;;;;;;4979637;28;20089;-69
2024/01/26 09:36:46;;;;;;;16.17;4.32;;;7.90;99.90;;;;;;4979770;28;20027;-69
2024/01/26 09:39:12;;;;;;;18.55;4.65;;;7.90;99.90;;;;;;4979335;28;20027;-69
2024/01/26 09:41:38;;;;;;;16.02;4.70;;;7.90;99.90;;;;;;4978956;28;20034;-69
2024/01/26 09:44:04;;;;;;;12.80;4.13;;;8.00;99.90;;;;;;4960261;28;20474;-69
2024/01/26 09:46:30;;;;;;;15.05;4.50;;;7.90;99.90;;;;;;4978981;28;20107;-69
2024/01/26 09:48:57;;;;;;;21.15;5.03;;;7.90;99.90;;;;;;4979696;28;20110;-69
2024/01/26 09:51:26;;;;;;;14.73;4.15;;;8.00;99.90;;;;;;4977826;28;20390;-69
2024/01/26 09:53:57;;;;;;;14.25;4.60;;;8.00;99.90;;;;;;4977851;28;20027;-69
2024/01/26 09:56:23;;;;;;;11.35;3.85;;;8.00;99.90;;;;;;4978985;28;20058;-69
2024/01/26 09:58:49;;;;;;;14.00;4.18;;;8.00;99.90;;;;;;4978247;28;20046;-69
2024/01/26 10:01:20;;;;;;;19.27;4.90;;;8.00;99.90;;;;;;4979805;28;20039;-69
2024/01/26 10:03:46;;;;;;;14.52;4.63;;;8.10;99.90;;;;;;4978478;28;20074;-69
2024/01/26 10:06:12;;;;;;;15.82;4.53;;;8.10;99.90;;;;;;4980246;28;20018;-69
2024/01/26 10:08:41;;;;;;;12.38;3.67;;;8.20;99.90;;;;;;4976823;28;20030;-69
2024/01/26 10:11:08;;;;;;;;;;;8.20;99.90;;;;;;4978589;28;20035;-69
2024/01/26 10:13:34;;;;;;;12.65;4.40;;;8.20;99.90;;;;;;4960865;28;19910;-69
2024/01/26 10:16:11;;;;;;;17.90;5.68;;;8.30;99.90;;;;;;4977660;28;20023;-69
2024/01/26 10:18:55;;;;;;;16.67;5.65;;;8.30;99.90;;;;;;4978236;28;20062;-69
2024/01/26 10:21:22;;;;;;;14.75;4.88;;;8.40;99.90;;;;;;4978423;28;20122;-69
2024/01/26 10:23:47;;;;;;;15.32;6.45;;;8.40;99.90;;;;;;4976594;28;20035;-69
2024/01/26 10:26:14;;;;;;;20.80;8.15;;;8.50;99.90;;;;;;4977661;28;20062;-69
2024/01/26 10:28:40;;;;;;;15.40;6.18;;;8.50;99.90;;;;;;4977897;28;20034;-69
2024/01/26 10:31:05;;;;;;;11.88;4.60;;;8.50;99.90;;;;;;4976601;28;20394;-69
2024/01/26 10:33:32;;;;;;;15.75;4.55;;;8.50;99.90;;;;;;4977459;28;20360;-69
2024/01/26 10:36:00;;;;;;;15.40;4.15;;;8.50;99.90;;;;;;4976028;28;20026;-69
2024/01/26 10:38:29;;;;;;;14.20;3.85;;;8.50;99.90;;;;;;4959954;28;20037;-70
2024/01/26 10:41:05;;;;;;;11.40;3.58;;;8.50;99.90;;;;;;4977078;28;20386;-70
2024/01/26 10:43:31;;;;;;;8.27;3.58;;;8.50;99.90;;;;;;4977268;28;20058;-69
2024/01/26 10:45:58;;;;;;;15.73;4.93;;;8.50;99.90;;;;;;4976158;28;20030;-69
2024/01/26 10:48:27;;;;;;;14.77;4.22;;;8.60;99.90;;;;;;4976210;28;20031;-69
2024/01/26 10:50:53;;;;;;;15.45;4.15;;;8.60;99.90;;;;;;4976165;28;20050;-69
2024/01/26 10:53:21;;;;;;;14.40;4.38;;;8.60;99.90;;;;;;4975814;28;20485;-69
2024/01/26 10:55:48;;;;;;;9.18;3.13;;;8.60;99.90;;;;;;4976294;28;20027;-69
2024/01/26 10:58:14;;;;;;;11.65;3.60;;;8.60;99.90;;;;;;4960606;28;20034;-69
2024/01/26 11:00:41;;;;;;;7.03;3.00;;;8.60;99.90;;;;;;4976069;28;20026;-69
2024/01/26 11:03:08;;;;;;;12.63;3.28;;;8.60;99.90;;;;;;4977843;28;20070;-69
2024/01/26 11:05:34;;;;;;;7.57;3.30;;;8.70;99.90;;;;;;4977390;28;20478;-69
2024/01/26 11:08:05;;;;;;;11.40;3.70;;;8.70;99.90;;;;;;4977287;28;20027;-69
2024/01/26 11:10:31;;;;;;;6.75;3.05;;;8.70;99.90;;;;;;4977209;28;20030;-69
2024/01/26 11:13:16;;;;;;;6.95;2.65;;;8.80;99.90;;;;;;4976044;28;20492;-69
2024/01/26 11:15:43;;;;;;;8.90;4.03;;;8.80;99.90;;;;;;4977025;28;20027;-69
2024/01/26 11:18:21;;;;;;;6.32;2.38;;;8.80;99.90;;;;;;4975787;28;20378;-69
2024/01/26 11:20:48;;;;;;;6.65;2.92;;;8.90;99.90;;;;;;4976627;28;20065;-69
2024/01/26 11:23:15;;;;;;;6.95;2.40;;;8.90;99.90;;;;;;4975189;28;20039;-69
2024/01/26 11:25:46;;;;;;;6.55;2.63;;;8.90;99.90;;;;;;4976079;28;20083;-69
2024/01/26 11:28:15;;;;;;;6.28;2.85;;;9.00;99.90;;;;;;4976463;28;20113;-69
2024/01/26 11:30:43;;;;;;;8.38;2.83;;;9.00;99.90;;;;;;4976861;28;20033;-69
2024/01/26 11:33:21;;;;;;;10.20;3.10;;;9.00;99.90;;;;;;4975105;28;20031;-69
2024/01/26 11:35:47;;;;;;;6.70;2.80;;;9.10;99.90;;;;;;4976291;28;20023;-69
2024/01/26 11:38:13;;;;;;;6.90;3.03;;;9.10;99.90;;;;;;4976088;28;20033;-69
2024/01/26 11:40:39;;;;;;;9.82;3.88;;;9.20;99.90;;;;;;4974488;28;20029;-69
2024/01/26 11:43:05;;;;;;;11.80;2.85;;;9.20;99.90;;;;;;4974699;28;20035;-69
2024/01/26 11:45:45;;;;;;;5.03;3.08;;;9.20;99.90;;;;;;4976287;28;20029;-69
2024/01/26 11:48:12;;;;;;;6.10;2.70;;;9.30;99.90;;;;;;4975454;28;20489;-69
2024/01/26 11:50:41;;;;;;;8.23;2.88;;;9.30;99.90;;;;;;4976181;28;20029;-69
2024/01/26 11:53:08;;;;;;;6.07;2.30;;;9.40;99.90;;;;;;4974922;28;20056;-69
2024/01/26 11:55:35;;;;;;;4.20;1.90;;;9.40;99.90;;;;;;4975592;28;20034;-69
2024/01/26 11:58:01;;;;;;;4.97;2.30;;;9.40;99.90;;;;;;4974208;28;20054;-69
2024/01/26 12:00:30;;;;;;;6.60;2.20;;;9.40;99.90;;;;;;4958225;28;20057;-69
2024/01/26 12:02:56;;;;;;;16.30;4.00;;;9.40;99.90;;;;;;4975564;28;20031;-69
2024/01/26 12:05:22;;;;;;;18.83;4.70;;;9.30;99.90;;;;;;4975131;28;20030;-69
2024/01/26 12:07:48;;;;;;;17.80;4.80;;;9.10;99.90;;;;;;4975763;28;20081;-69
2024/01/26 12:10:14;;;;;;;20.73;4.78;;;8.80;99.90;;;;;;4975623;28;20077;-69
2024/01/26 12:12:47;;;;;;;16.23;4.85;;;8.70;99.90;;;;;;4975778;28;20034;-69
2024/01/26 12:15:13;;;;;;;20.10;4.93;;;8.50;99.90;;;;;;4975510;28;20029;-70
2024/01/26 12:17:39;;;;;;;23.83;5.78;;;8.30;99.90;;;;;;4975857;28;20031;-69
2024/01/26 12:20:08;;;;;;;21.48;6.00;;;8.20;99.90;;;;;;4973867;28;20030;-69
2024/01/26 12:22:34;;;;;;;23.92;5.20;;;8.10;99.90;;;;;;4975307;28;20066;-69
2024/01/26 12:25:05;;;;;;;15.50;4.53;;;8.00;99.90;;;;;;4975204;28;20038;-69
2024/01/26 12:27:31;;;;;;;16.45;6.68;;;7.90;99.90;;;;;;4975307;28;20047;-69
2024/01/26 12:29:56;;;;;;;16.20;6.05;;;7.80;99.90;;;;;;4975820;28;20042;-69
2024/01/26 12:32:22;;;;;;;17.45;5.25;;;7.70;99.90;;;;;;4974048;28;20037;-69
2024/01/26 12:34:48;;;;;;;14.85;4.68;;;7.70;99.90;;;;;;4974094;28;20033;-69
2024/01/26 12:37:14;;;;;;;15.55;5.40;;;7.70;99.90;;;;;;4973700;28;20031;-69
2024/01/26 12:39:39;;;;;;;28.08;5.60;;;7.60;99.90;;;;;;4974291;28;20062;-69
2024/01/26 12:42:05;;;;;;;16.15;5.43;;;7.60;99.90;;;;;;4975009;28;20027;-69